KCVS/CVS METAR and TAF weather

Enter ICAO airport designator
Station Type Date Time Source
KCVS METAR 2018/10/21 03:58 UTC NOAA

KCVS 210358Z 14006KT 10SM CLR 09/04 A3044 RMK AO2A SLP287 T00880042 $


Station Type Date Time Source
KCVS Decoded METAR 2018/10/21 03:58 UTC NOAA

Cannon Air Force Base / Clovis, NM, United States (KCVS) 34-23N 103-19W
Oct 20, 2018 - 11:58 PM EDT / 2018.10.21 0358 UTC
Wind: from the SE (140 degrees) at 7 MPH (6 KT):0
Visibility: 10 mile(s):0
Sky conditions: clear
Temperature: 47.8 F (8.8 C)
Dew Point: 39.6 F (4.2 C)
Relative Humidity: 72%
Pressure (altimeter): 30.44 in. Hg (1030 hPa)
ob: KCVS 210358Z 14006KT 10SM CLR 09/04 A3044 RMK AO2A SLP287 T00880042
cycle: 4

Station Type Date Time Source
KCVS TAF 2018/10/21 02:27 UTC NOAA

TAF KCVS 210200Z 2102/2208 12006KT 9999 SKC QNH3040INS
BECMG 2107/2108 15005KT 9999 SKC QNH3035INS
BECMG 2117/2118 20012G18KT 9999 BKN060 QHN3022INS
BECMG 2123/2124 20006KT 9999 BKN040 QNH3016INS TX16/2121Z TN04/2111Z


Example: see airport list